Time;durP1;ratioP1;P1;durP2;ratioP2;P2;SDS_P1;SDS_P2;PMS_P1;PMS_P2;Temp;Humidity;BMP_temperature;BMP_pressure;BME280_temperature;BME280_humidity;BME280_pressure;Samples;Min_cycle;Max_cycle;Signal;HPM_P1;HPM_P2
2022/06/15 00:01:06;;;;;;;4.07;1.27;;;15.30;99.90;;;;;;5055351;28;20573;-92
2022/06/15 00:03:38;;;;;;;2.67;0.70;;;15.30;99.90;;;;;;5055485;28;21028;-90
2022/06/15 00:06:07;;;;;;;1.90;0.60;;;15.30;99.90;;;;;;5055662;28;20429;-89
2022/06/15 00:08:32;;;;;;;1.83;0.73;;;15.30;99.90;;;;;;5054326;28;20428;-89
2022/06/15 00:11:07;;;;;;;1.50;0.90;;;15.40;99.90;;;;;;5053965;28;20425;-91
2022/06/15 00:13:36;;;;;;;1.90;0.60;;;15.40;99.90;;;;;;5055799;28;20418;-91
2022/06/15 00:16:03;;;;;;;1.27;0.57;;;15.50;99.90;;;;;;5071116;28;20420;-87
2022/06/15 00:18:29;;;;;;;1.63;0.60;;;15.50;99.90;;;;;;5055453;28;20417;-92
2022/06/15 00:20:59;;;;;;;3.63;0.77;;;15.60;99.90;;;;;;5053469;28;20496;-93
2022/06/15 00:23:26;;;;;;;3.03;0.63;;;15.60;99.90;;;;;;5053964;28;20172;-89
2022/06/15 00:25:52;;;;;;;2.10;0.70;;;15.60;99.90;;;;;;5050496;28;20548;-89
2022/06/15 00:28:18;;;;;;;3.03;0.60;;;15.60;99.90;;;;;;5053016;28;20419;-87
2022/06/15 00:30:50;;;;;;;1.87;1.20;;;15.60;99.90;;;;;;5054830;28;20824;-88
2022/06/15 00:33:19;;;;;;;3.43;1.00;;;15.60;99.90;;;;;;5062108;28;20436;-89
2022/06/15 00:35:51;;;;;;;5.03;0.90;;;15.50;99.90;;;;;;5059179;28;20433;-88
2022/06/15 00:38:17;;;;;;;5.40;0.93;;;15.50;99.90;;;;;;5058312;28;20783;-90
2022/06/15 00:40:42;;;;;;;0.73;0.30;;;15.40;99.90;;;;;;5061815;28;20472;-89
2022/06/15 00:43:09;;;;;;;3.80;1.47;;;15.30;99.90;;;;;;5057072;28;20290;-90
2022/06/15 00:45:34;;;;;;;1.17;0.50;;;15.30;99.90;;;;;;5070768;28;20688;-91
2022/06/15 00:48:00;;;;;;;2.47;0.83;;;15.30;99.90;;;;;;5069623;28;20407;-87
2022/06/15 00:50:25;;;;;;;1.80;1.00;;;15.30;99.90;;;;;;5053710;28;20232;-89
2022/06/15 00:52:58;;;;;;;1.47;1.10;;;15.30;99.90;;;;;;5053542;28;20541;-91
2022/06/15 00:55:28;;;;;;;2.43;1.00;;;15.40;99.90;;;;;;5069556;28;20232;-88
2022/06/15 00:57:59;;;;;;;3.20;0.83;;;15.40;99.90;;;;;;5053976;28;20965;-91
2022/06/15 01:00:27;;;;;;;2.30;0.60;;;15.40;99.90;;;;;;5053405;28;20481;-88
2022/06/15 01:02:53;;;;;;;2.00;0.67;;;15.40;99.90;;;;;;5054353;28;20496;-89
2022/06/15 01:05:22;;;;;;;2.07;0.90;;;15.40;99.90;;;;;;5053020;28;20894;-88
2022/06/15 01:08:19;;;;;;;2.37;0.53;;;15.50;99.90;;;;;;5054400;28;20167;-87
2022/06/15 01:11:11;;;;;;;1.80;0.60;;;15.50;99.90;;;;;;5053837;28;20414;-88
2022/06/15 01:14:13;;;;;;;4.47;0.93;;;15.50;99.90;;;;;;5054184;28;20488;-88
2022/06/15 01:16:59;;;;;;;2.83;0.60;;;15.40;99.90;;;;;;5069434;28;20474;-87
2022/06/15 01:19:58;;;;;;;2.10;0.70;;;15.40;99.90;;;;;;5069273;28;20591;-89
2022/06/15 01:22:48;;;;;;;2.27;0.37;;;15.40;99.90;;;;;;5053922;28;20466;-86
2022/06/15 01:25:41;;;;;;;3.23;1.37;;;15.40;99.90;;;;;;5053475;28;20421;-86
2022/06/15 01:28:27;;;;;;;2.03;0.60;;;15.40;99.90;;;;;;5068914;28;20417;-86
2022/06/15 01:31:30;;;;;;;1.43;0.40;;;15.30;99.90;;;;;;5053368;28;20413;-86
2022/06/15 01:34:12;;;;;;;4.37;0.60;;;15.30;99.90;;;;;;5053698;28;20754;-87
2022/06/15 01:36:45;;;;;;;2.50;0.83;;;15.30;99.90;;;;;;5052461;28;20418;-87
2022/06/15 01:39:27;;;;;;;2.00;0.90;;;15.30;99.90;;;;;;5068351;28;20417;-88
2022/06/15 01:42:03;;;;;;;4.27;1.20;;;15.30;99.90;;;;;;5053692;28;20423;-89
2022/06/15 01:44:45;;;;;;;1.97;0.80;;;15.30;99.90;;;;;;5053356;28;20424;-88
2022/06/15 01:47:15;;;;;;;2.40;1.00;;;15.20;99.90;;;;;;5052071;28;20436;-87
2022/06/15 01:49:45;;;;;;;1.93;0.40;;;15.20;99.90;;;;;;5053160;28;21001;-87
2022/06/15 01:52:14;;;;;;;2.00;0.57;;;15.20;99.90;;;;;;5053179;28;20410;-88
2022/06/15 01:54:52;;;;;;;1.63;0.87;;;15.20;99.90;;;;;;5051878;28;20421;-90
2022/06/15 01:57:19;;;;;;;1.93;0.87;;;15.10;99.90;;;;;;5051622;28;20451;-88
2022/06/15 01:59:51;;;;;;;2.53;0.83;;;15.10;99.90;;;;;;5051686;28;20501;-88
2022/06/15 02:02:27;;;;;;;0.87;0.47;;;15.20;99.90;;;;;;5068562;28;20459;-88
2022/06/15 02:05:18;;;;;;;2.80;1.47;;;15.20;99.90;;;;;;5051943;28;20509;-88
2022/06/15 02:08:06;;;;;;;3.27;0.70;;;15.20;99.90;;;;;;5053406;28;20445;-88
2022/06/15 02:10:50;;;;;;;5.60;1.03;;;15.30;99.90;;;;;;5052925;28;20418;-88
2022/06/15 02:13:47;;;;;;;3.43;0.40;;;15.30;99.90;;;;;;5051914;28;20813;-88
2022/06/15 02:16:24;;;;;;;3.70;0.73;;;15.30;99.90;;;;;;5053485;28;20410;-89
2022/06/15 02:18:50;;;;;;;2.87;1.03;;;15.30;99.90;;;;;;5053369;28;20416;-87
2022/06/15 02:21:27;;;;;;;3.27;0.90;;;15.30;99.90;;;;;;5053191;28;21058;-87
2022/06/15 02:24:00;;;;;;;2.80;1.00;;;15.40;99.90;;;;;;5052675;28;20711;-88
2022/06/15 02:26:31;;;;;;;2.67;0.70;;;15.40;99.90;;;;;;5053232;28;20488;-88
2022/06/15 02:29:05;;;;;;;2.73;1.30;;;15.40;99.90;;;;;;5053089;28;20421;-87
2022/06/15 02:31:31;;;;;;;3.27;1.00;;;15.40;99.90;;;;;;5068488;28;20905;-87
2022/06/15 02:33:59;;;;;;;2.27;0.50;;;15.40;99.90;;;;;;5053109;28;20901;-87
2022/06/15 02:36:32;;;;;;;1.80;1.10;;;15.40;99.90;;;;;;5053067;28;20417;-87
2022/06/15 02:38:58;;;;;;;1.87;0.70;;;15.40;99.90;;;;;;5068083;28;20521;-87
2022/06/15 02:41:27;;;;;;;4.43;1.43;;;15.40;99.90;;;;;;5068582;28;20476;-88
2022/06/15 02:43:54;;;;;;;4.30;1.10;;;15.20;99.90;;;;;;5052842;28;20411;-88
2022/06/15 02:46:26;;;;;;;3.97;0.90;;;15.20;99.90;;;;;;5051769;28;20429;-89
2022/06/15 02:48:52;;;;;;;3.50;1.07;;;15.10;99.90;;;;;;5054903;28;20404;-88
2022/06/15 02:51:31;;;;;;;4.30;1.40;;;15.00;99.90;;;;;;5055472;28;20944;-88
2022/06/15 02:54:06;;;;;;;3.80;1.30;;;15.10;99.90;;;;;;5072038;28;20443;-88
2022/06/15 02:56:32;;;;;;;4.50;1.20;;;15.00;99.90;;;;;;5055561;28;20417;-89
2022/06/15 02:58:58;;;;;;;2.40;1.20;;;15.00;99.90;;;;;;5056597;28;20498;-89
2022/06/15 03:01:25;;;;;;;1.63;1.10;;;15.00;99.90;;;;;;5055747;28;20503;-89
2022/06/15 03:03:51;;;;;;;2.50;0.97;;;15.10;99.90;;;;;;5056722;28;20159;-88
2022/06/15 03:06:18;;;;;;;3.30;1.60;;;15.10;99.90;;;;;;5056820;28;20430;-88
2022/06/15 03:08:44;;;;;;;2.60;1.50;;;15.20;99.90;;;;;;5056379;28;20203;-86
2022/06/15 03:11:10;;;;;;;1.90;1.20;;;15.20;99.90;;;;;;5056250;28;20804;-87
2022/06/15 03:13:36;;;;;;;3.43;1.67;;;15.10;99.90;;;;;;5056356;28;20420;-86
2022/06/15 03:16:03;;;;;;;3.70;1.27;;;15.10;76.50;;;;;;5056214;28;20252;-86
2022/06/15 03:18:30;;;;;;;2.40;1.03;;;15.10;31.30;;;;;;5056254;28;20197;-86
2022/06/15 03:20:59;;;;;;;3.20;1.57;;;15.10;14.40;;;;;;5056235;28;20610;-87
2022/06/15 03:23:25;;;;;;;4.53;1.47;;;15.00;34.80;;;;;;5055823;28;20433;-86
2022/06/15 03:25:59;;;;;;;2.20;1.17;;;14.90;57.90;;;;;;5055995;28;20420;-87
2022/06/15 03:28:25;;;;;;;3.40;1.00;;;14.80;87.90;;;;;;5056027;28;20413;-87
2022/06/15 03:30:51;;;;;;;2.43;0.73;;;14.80;99.90;;;;;;5054773;28;20418;-86
2022/06/15 03:33:17;;;;;;;3.07;0.90;;;14.80;99.90;;;;;;5071417;28;20175;-86
2022/06/15 03:35:47;;;;;;;2.40;1.50;;;14.80;99.90;;;;;;5054543;28;20426;-86
2022/06/15 03:38:13;;;;;;;1.87;1.20;;;14.80;99.90;;;;;;5055694;28;20446;-84
2022/06/15 03:40:44;;;;;;;4.03;2.03;;;14.80;99.90;;;;;;5055952;28;20461;-84
2022/06/15 03:43:10;;;;;;;3.57;1.60;;;14.60;99.90;;;;;;5056053;28;20412;-83
2022/06/15 03:45:37;;;;;;;3.73;2.60;;;14.60;99.90;;;;;;5055827;28;20413;-89
2022/06/15 03:48:03;;;;;;;2.80;1.37;;;14.60;99.90;;;;;;5054643;28;20463;-84
2022/06/15 03:50:31;;;;;;;2.83;1.20;;;14.70;99.90;;;;;;5055754;28;20415;-85
2022/06/15 03:52:57;;;;;;;3.70;1.03;;;14.80;99.90;;;;;;5055533;28;20173;-84
2022/06/15 03:55:23;;;;;;;3.03;1.50;;;14.90;99.90;;;;;;5054049;28;20424;-84
2022/06/15 03:57:49;;;;;;;4.60;2.10;;;14.90;99.90;;;;;;5055525;28;20509;-84
2022/06/15 04:00:17;;;;;;;3.10;1.33;;;14.90;99.90;;;;;;5054709;28;20593;-84
2022/06/15 04:02:45;;;;;;;3.27;2.13;;;15.00;99.90;;;;;;5055433;28;20563;-84
2022/06/15 04:05:20;;;;;;;4.77;2.23;;;15.00;99.90;;;;;;5055227;28;20421;-84
2022/06/15 04:10:30;;;;;;;4.57;2.60;;;15.20;99.90;;;;;;5054829;28;20471;-84
2022/06/15 04:12:55;;;;;;;4.10;1.40;;;15.30;99.90;;;;;;5055188;28;20503;-85
2022/06/15 04:15:21;;;;;;;3.00;1.90;;;15.40;99.90;;;;;;5055019;28;20170;-85
2022/06/15 04:17:47;;;;;;;3.50;1.90;;;15.40;75.20;;;;;;5054979;28;20214;-84
2022/06/15 04:20:33;;;;;;;4.90;1.80;;;15.50;92.00;;;;;;5055020;28;20209;-84
2022/06/15 04:23:18;;;;;;;3.23;1.43;;;15.60;99.90;;;;;;5055001;28;20171;-84
2022/06/15 04:25:57;;;;;;;4.40;2.10;;;15.50;61.90;;;;;;5055115;28;20761;-84
2022/06/15 04:28:25;;;;;;;4.07;1.97;;;15.60;48.90;;;;;;5054898;28;20892;-85
2022/06/15 04:30:50;;;;;;;6.80;1.80;;;15.70;14.00;;;;;;5054901;28;20416;-85
2022/06/15 04:33:17;;;;;;;3.67;2.40;;;15.60;38.10;;;;;;5054789;28;20474;-85
2022/06/15 04:35:45;;;;;;;3.30;2.00;;;15.60;38.50;;;;;;5053496;28;20202;-86
2022/06/15 04:38:12;;;;;;;4.10;2.37;;;15.80;36.80;;;;;;5054352;28;20440;-85
2022/06/15 04:40:39;;;;;;;3.80;1.43;;;15.90;18.50;;;;;;5054691;28;20859;-86
2022/06/15 04:43:06;;;;;;;3.60;1.53;;;16.00;13.10;;;;;;5054584;28;20412;-87
2022/06/15 04:45:32;;;;;;;3.43;1.73;;;16.10;13.30;;;;;;5054499;28;20428;-87
2022/06/15 04:47:58;;;;;;;5.27;1.60;;;16.10;1.00;;;;;;5053987;28;20504;-86
2022/06/15 04:50:28;;;;;;;3.93;2.20;;;16.20;1.00;;;;;;5054258;28;20210;-87
2022/06/15 04:52:54;;;;;;;5.43;1.67;;;16.30;1.00;;;;;;5054248;28;20170;-85
2022/06/15 04:55:22;;;;;;;2.97;1.10;;;16.40;1.00;;;;;;5069357;28;20422;-85
2022/06/15 04:57:50;;;;;;;2.10;1.03;;;16.60;1.00;;;;;;5052705;28;20227;-85
2022/06/15 05:00:18;;;;;;;3.47;2.07;;;16.70;1.00;;;;;;5054157;28;20566;-85
2022/06/15 05:02:45;;;;;;;3.07;1.47;;;16.80;1.00;;;;;;5054119;28;20493;-85
2022/06/15 05:05:11;;;;;;;4.23;1.00;;;16.90;1.00;;;;;;5053909;28;20434;-85
2022/06/15 05:07:43;;;;;;;5.50;1.10;;;17.00;1.00;;;;;;5058874;28;20519;-85
2022/06/15 05:10:19;;;;;;;3.40;1.67;;;17.10;1.00;;;;;;5059825;28;20418;-84
2022/06/15 05:12:46;;;;;;;4.03;1.33;;;17.20;1.00;;;;;;5058488;28;20418;-85
2022/06/15 05:15:13;;;;;;;3.87;1.33;;;17.30;99.90;;;;;;5053891;28;20409;-87
2022/06/15 05:17:43;;;;;;;4.80;1.63;;;17.40;99.90;;;;;;5053982;28;20996;-85
2022/06/15 05:20:11;;;;;;;7.77;1.40;;;17.40;99.90;;;;;;5053768;28;20487;-86
2022/06/15 05:22:39;;;;;;;2.83;1.37;;;17.50;99.90;;;;;;5053736;28;20968;-86
2022/06/15 05:25:07;;;;;;;1.77;1.10;;;17.60;99.90;;;;;;5053271;28;20433;-87
2022/06/15 05:27:34;;;;;;;4.63;1.33;;;17.70;99.90;;;;;;5053703;28;20424;-87
2022/06/15 05:30:00;;;;;;;4.50;1.53;;;17.90;99.90;;;;;;5069034;28;20485;-86
2022/06/15 05:32:26;;;;;;;3.27;1.83;;;18.10;99.90;;;;;;5053433;28;20908;-85
2022/06/15 05:34:54;;;;;;;3.87;1.40;;;18.30;99.90;;;;;;5053392;28;20407;-86
2022/06/15 05:37:20;;;;;;;3.07;1.13;;;18.50;1.00;;;;;;5053512;28;20792;-85
2022/06/15 05:39:46;;;;;;;2.87;1.33;;;18.60;99.90;;;;;;5052983;28;20460;-85
2022/06/15 05:42:11;;;;;;;4.47;1.37;;;18.80;99.90;;;;;;5053295;28;20554;-85
2022/06/15 05:47:10;;;;;;;2.20;0.57;;;19.00;1.00;;;;;;5053278;28;20174;-85
2022/06/15 05:49:36;;;;;;;4.23;1.43;;;19.20;1.00;;;;;;5053285;28;20444;-86
2022/06/15 05:52:05;;;;;;;4.83;1.13;;;19.30;1.00;;;;;;5051937;28;20437;-88
2022/06/15 05:54:33;;;;;;;3.23;1.63;;;19.40;28.70;;;;;;5068136;28;20208;-86
2022/06/15 05:57:01;;;;;;;3.13;0.50;;;19.50;96.20;;;;;;5052002;28;20410;-86
2022/06/15 05:59:26;;;;;;;3.13;1.13;;;19.60;75.10;;;;;;5053128;28;20556;-88
2022/06/15 06:01:52;;;;;;;3.83;0.63;;;19.70;1.00;;;;;;5053291;28;20917;-87
2022/06/15 06:04:19;;;;;;;1.37;0.70;;;19.80;1.00;;;;;;5053290;28;20204;-87
2022/06/15 06:06:45;;;;;;;2.20;0.70;;;19.80;1.00;;;;;;5068794;28;20179;-87
2022/06/15 06:09:11;;;;;;;2.60;0.70;;;20.00;1.00;;;;;;5052826;28;20488;-85
2022/06/15 06:11:37;;;;;;;5.47;1.00;;;20.10;99.90;;;;;;5053050;28;20445;-85
2022/06/15 06:14:03;;;;;;;4.20;0.93;;;20.10;99.90;;;;;;5051714;28;20543;-84
2022/06/15 06:16:28;;;;;;;4.87;0.93;;;20.10;99.90;;;;;;5052998;28;20965;-85
2022/06/15 06:18:54;;;;;;;3.07;0.80;;;20.30;99.90;;;;;;5052844;28;20242;-86
2022/06/15 06:21:20;;;;;;;3.93;1.00;;;20.50;99.90;;;;;;5052690;28;20205;-84
2022/06/15 06:23:46;;;;;;;2.37;0.47;;;20.90;99.90;;;;;;5051896;28;20173;-85
2022/06/15 06:26:24;;;;;;;1.97;0.87;;;21.00;99.90;;;;;;5052742;28;20510;-88
2022/06/15 06:28:50;;;;;;;3.63;0.90;;;21.10;99.90;;;;;;5061660;28;20416;-84
2022/06/15 06:31:19;;;;;;;2.00;1.10;;;21.20;99.90;;;;;;5052899;28;20459;-85
2022/06/15 06:33:46;;;;;;;5.50;1.13;;;21.20;99.90;;;;;;5059044;28;20829;-84
2022/06/15 06:36:37;;;;;;;2.40;1.00;;;21.00;99.90;;;;;;5054469;28;20423;-84
2022/06/15 06:39:15;;;;;;;1.43;0.60;;;20.90;99.90;;;;;;5052276;28;20424;-88
2022/06/15 06:41:40;;;;;;;2.50;0.57;;;20.90;99.90;;;;;;5052809;28;20454;-87
2022/06/15 06:44:07;;;;;;;1.70;0.60;;;21.10;99.90;;;;;;5052646;28;20405;-88
2022/06/15 06:46:33;;;;;;;3.90;0.80;;;21.30;99.90;;;;;;5052760;28;20943;-84
2022/06/15 06:48:59;;;;;;;2.87;0.50;;;21.50;99.90;;;;;;5051782;28;20907;-84
2022/06/15 06:51:26;;;;;;;2.70;1.60;;;21.70;99.90;;;;;;5052107;28;20446;-84
2022/06/15 06:53:51;;;;;;;2.07;0.50;;;21.80;99.90;;;;;;5052080;28;20554;-90
2022/06/15 06:56:17;;;;;;;3.00;0.50;;;22.00;99.90;;;;;;5066803;28;20428;-84
2022/06/15 06:58:42;;;;;;;3.03;0.33;;;22.10;99.90;;;;;;5051434;28;20272;-83
2022/06/15 07:01:08;;;;;;;2.83;0.60;;;22.20;99.90;;;;;;5051937;28;20221;-85
2022/06/15 07:03:33;;;;;;;2.57;0.30;;;22.30;99.90;;;;;;5052338;28;20626;-87
2022/06/15 07:06:04;;;;;;;2.73;0.40;;;22.70;99.90;;;;;;5052849;28;20176;-87
2022/06/15 07:08:31;;;;;;;4.77;0.77;;;23.60;99.90;;;;;;5052307;28;20180;-85
2022/06/15 07:10:57;;;;;;;2.70;0.50;;;24.60;99.90;;;;;;5067667;28;20500;-85
2022/06/15 07:13:25;;;;;;;1.53;0.43;;;25.90;99.90;;;;;;5052311;28;20459;-85
2022/06/15 07:15:51;;;;;;;2.50;0.43;;;26.90;58.70;;;;;;5052097;28;20618;-84
2022/06/15 07:18:17;;;;;;;2.23;0.57;;;27.30;38.70;;;;;;5052248;28;20477;-86
2022/06/15 07:20:42;;;;;;;3.57;0.90;;;28.10;30.50;;;;;;5050342;28;20221;-84
2022/06/15 07:23:08;;;;;;;5.17;1.57;;;28.10;24.10;;;;;;5051805;28;20253;-83
2022/06/15 07:25:34;;;;;;;1.10;0.30;;;28.20;20.70;;;;;;5052093;28;20694;-84
2022/06/15 07:28:06;;;;;;;1.50;0.50;;;28.30;12.90;;;;;;5052172;28;20562;-85
2022/06/15 07:30:34;;;;;;;3.63;0.50;;;27.60;3.30;;;;;;5052716;28;20184;-84
2022/06/15 07:32:59;;;;;;;3.30;0.30;;;27.20;1.00;;;;;;5052105;28;20741;-85
2022/06/15 07:35:31;;;;;;;2.30;0.60;;;28.50;5.80;;;;;;5068757;28;20420;-84
2022/06/15 07:37:57;;;;;;;0.83;0.23;;;29.80;10.40;;;;;;5055431;28;20166;-89
2022/06/15 07:40:26;;;;;;;2.13;0.30;;;31.80;17.20;;;;;;5055282;28;20517;-85
2022/06/15 07:42:55;;;;;;;1.00;0.20;;;32.60;10.00;;;;;;5055378;28;20166;-88
2022/06/15 07:45:23;;;;;;;1.07;0.27;;;32.70;5.40;;;;;;5053247;28;20470;-86
2022/06/15 07:50:34;;;;;;;1.07;0.60;;;33.40;3.50;;;;;;5054639;28;20805;-86
2022/06/15 07:53:02;;;;;;;1.30;0.30;;;33.30;1.80;;;;;;5053783;28;20420;-84
2022/06/15 07:55:32;;;;;;;2.90;0.73;;;34.00;4.00;;;;;;5055557;28;20182;-89
2022/06/15 07:58:00;;;;;;;1.17;0.40;;;34.90;8.30;;;;;;5055451;28;20448;-84
2022/06/15 08:00:26;;;;;;;1.47;0.40;;;35.60;10.00;;;;;;5055589;28;20471;-86
2022/06/15 08:02:52;;;;;;;2.57;0.73;;;35.50;7.80;;;;;;5055449;28;20413;-89
2022/06/15 08:05:19;;;;;;;2.13;0.67;;;36.00;10.50;;;;;;5055593;28;20424;-87
2022/06/15 08:07:46;;;;;;;1.00;0.20;;;36.10;10.20;;;;;;5055105;28;20201;-91
2022/06/15 08:10:18;;;;;;;1.57;0.60;;;36.10;7.60;;;;;;5055681;28;20452;-87
2022/06/15 08:12:44;;;;;;;0.77;0.30;;;36.80;11.30;;;;;;5055312;28;20416;-83
2022/06/15 08:15:13;;;;;;;2.00;0.60;;;37.30;13.00;;;;;;5055184;28;20432;-86
2022/06/15 08:17:49;;;;;;;1.80;0.30;;;38.00;15.90;;;;;;5055434;28;20759;-87
2022/06/15 08:20:26;;;;;;;1.40;0.27;;;37.70;12.30;;;;;;5055305;28;20459;-88
2022/06/15 08:23:03;;;;;;;1.40;0.60;;;38.10;14.30;;;;;;5055224;28;20478;-88
2022/06/15 08:25:33;;;;;;;3.00;0.40;;;38.70;16.80;;;;;;5055385;28;20408;-87
2022/06/15 08:27:59;;;;;;;2.63;0.53;;;38.70;14.40;;;;;;5055323;28;20429;-88
2022/06/15 08:30:26;;;;;;;2.00;0.57;;;39.00;15.60;;;;;;5055403;28;20420;-86
2022/06/15 08:32:52;;;;;;;1.60;0.60;;;39.20;15.30;;;;;;5055179;28;20412;-90
2022/06/15 08:35:18;;;;;;;1.37;0.60;;;39.20;14.60;;;;;;5055469;28;20408;-89
2022/06/15 08:37:44;;;;;;;2.47;0.77;;;39.10;12.30;;;;;;5054795;28;20176;-88
2022/06/15 08:40:11;;;;;;;2.40;0.50;;;39.60;13.80;;;;;;5054999;28;20475;-84
2022/06/15 08:42:50;;;;;;;2.00;0.50;;;40.20;16.60;;;;;;5053572;28;20187;-86
2022/06/15 08:45:26;;;;;;;1.33;0.50;;;40.50;17.30;;;;;;5054625;28;20462;-86
2022/06/15 08:48:01;;;;;;;3.03;0.60;;;41.10;19.20;;;;;;5054399;28;20970;-84
2022/06/15 08:51:11;;;;;;;1.67;0.70;;;41.30;20.20;;;;;;5054431;28;20411;-84
2022/06/15 08:53:47;;;;;;;1.60;0.40;;;39.70;8.10;;;;;;5030561;28;20916;-87
2022/06/15 08:56:41;;;;;;;2.43;0.40;;;36.70;1.00;;;;;;5053088;28;20415;-84
2022/06/15 08:59:12;;;;;;;1.60;0.40;;;33.70;1.00;;;;;;5069458;28;20459;-88
2022/06/15 09:02:05;;;;;;;1.23;0.50;;;33.90;1.00;;;;;;5069567;28;20479;-85
2022/06/15 09:04:46;;;;;;;2.73;0.63;;;35.60;1.00;;;;;;5054112;28;20491;-84
2022/06/15 09:07:44;;;;;;;1.20;0.53;;;34.50;1.00;;;;;;5052949;28;20435;-85
2022/06/15 09:10:36;;;;;;;2.60;1.10;;;33.90;1.00;;;;;;5069497;28;20420;-87
2022/06/15 09:13:48;;;;;;;3.47;0.60;;;32.30;1.00;;;;;;5054123;28;20963;-86
2022/06/15 09:16:32;;;;;;;1.53;0.63;;;30.10;1.00;;;;;;5053088;28;20808;-86
2022/06/15 09:19:12;;;;;;;5.30;1.07;;;28.90;1.00;;;;;;5069417;28;20432;-88
2022/06/15 09:21:54;;;;;;;3.20;0.63;;;31.40;1.00;;;;;;5054177;28;21015;-85
2022/06/15 09:24:49;;;;;;;3.10;1.07;;;34.50;1.00;;;;;;5053651;28;20405;-85
2022/06/15 09:27:22;;;;;;;5.87;1.47;;;33.70;1.00;;;;;;5053660;28;20419;-85
2022/06/15 09:30:01;;;;;;;3.73;1.07;;;33.40;1.00;;;;;;5053543;28;20412;-86
2022/06/15 09:32:41;;;;;;;2.80;0.60;;;31.50;1.00;;;;;;5053675;28;20554;-85
2022/06/15 09:35:18;;;;;;;2.00;0.60;;;31.90;1.00;;;;;;5053448;28;20415;-87
2022/06/15 09:37:48;;;;;;;2.60;0.70;;;31.20;1.00;;;;;;5051791;28;20463;-84
2022/06/15 09:40:15;;;;;;;2.50;0.83;;;31.80;1.00;;;;;;5053181;28;20451;-85
2022/06/15 09:43:10;;;;;;;1.83;0.70;;;32.40;1.00;;;;;;5053285;28;20477;-85
2022/06/15 09:45:51;;;;;;;1.93;0.70;;;31.80;1.00;;;;;;5053227;28;20892;-86
2022/06/15 09:48:54;;;;;;;2.80;1.20;;;33.00;1.00;;;;;;5053079;28;20396;-85
2022/06/15 09:51:44;;;;;;;2.80;0.70;;;32.10;1.00;;;;;;5068556;28;20424;-85
2022/06/15 09:54:42;;;;;;;1.30;0.70;;;35.10;1.00;;;;;;5052740;28;20413;-86
2022/06/15 09:57:12;;;;;;;2.43;0.70;;;38.90;1.00;;;;;;5067976;28;21042;-88
2022/06/15 09:59:38;;;;;;;1.50;0.57;;;40.70;1.00;;;;;;5048405;28;20472;-89
2022/06/15 10:02:07;;;;;;;3.60;0.90;;;40.90;1.00;;;;;;5032675;28;20447;-86
2022/06/15 10:04:35;;;;;;;6.37;1.00;;;41.90;6.10;;;;;;5035638;28;20280;-84
2022/06/15 10:07:16;;;;;;;2.90;0.90;;;42.90;12.20;;;;;;5067329;28;20786;-83
2022/06/15 10:09:49;;;;;;;2.77;0.90;;;43.70;15.60;;;;;;5067286;28;20427;-83
2022/06/15 10:15:41;;;;;;;3.20;1.13;;;42.10;4.60;;;;;;5052770;28;20414;-84
2022/06/15 10:18:43;;;;;;;1.53;0.73;;;43.20;10.20;;;;;;5052342;28;20439;-86
2022/06/15 10:21:17;;;;;;;1.63;0.87;;;43.40;10.20;;;;;;5052401;28;20562;-84
2022/06/15 10:23:55;;;;;;;2.07;1.23;;;43.10;8.20;;;;;;5052197;28;20753;-83
2022/06/15 10:26:51;;;;;;;3.30;1.60;;;44.30;18.20;;;;;;5052275;28;20969;-83
2022/06/15 10:29:22;;;;;;;2.10;1.30;;;45.20;18.20;;;;;;5052311;28;20430;-85
2022/06/15 10:32:09;;;;;;;3.73;1.10;;;45.70;21.10;;;;;;5052396;28;20784;-85
2022/06/15 10:34:48;;;;;;;1.93;1.00;;;45.40;18.10;;;;;;5067680;28;20423;-84
2022/06/15 10:37:25;;;;;;;3.10;1.27;;;45.20;15.10;;;;;;5052040;28;20819;-84
2022/06/15 10:39:54;;;;;;;1.73;0.83;;;45.50;17.10;;;;;;5051574;28;20463;-85
2022/06/15 10:42:41;;;;;;;3.67;1.00;;;45.40;16.00;;;;;;5052334;28;20451;-85
2022/06/15 10:45:30;;;;;;;2.23;0.80;;;45.00;12.60;;;;;;5052128;28;20400;-84
2022/06/15 10:48:17;;;;;;;2.30;1.17;;;45.20;12.70;;;;;;5078345;28;20435;-84
2022/06/15 10:50:58;;;;;;;2.17;1.10;;;45.40;13.90;;;;;;5051163;28;20419;-83
2022/06/15 10:53:49;;;;;;;2.10;0.93;;;45.60;15.10;;;;;;5051852;28;20415;-84
2022/06/15 11:02:09;;;;;;;4.53;1.43;;;45.30;9.60;;;;;;5052396;28;20420;-88
2022/06/15 11:04:49;;;;;;;3.90;1.40;;;44.30;3.50;;;;;;5050758;28;20428;-85
2022/06/15 11:07:29;;;;;;;4.17;1.63;;;44.10;1.00;;;;;;5051563;28;20781;-85
2022/06/15 11:09:54;;;;;;;5.10;1.80;;;44.30;1.10;;;;;;5052552;28;20463;-85
2022/06/15 11:12:30;;;;;;;6.97;1.20;;;43.80;1.00;;;;;;5055849;28;20853;-85
2022/06/15 11:15:03;;;;;;;4.33;1.70;;;43.50;1.00;;;;;;5055666;28;20177;-85
2022/06/15 11:20:32;;;;;;;4.60;1.37;;;44.70;3.30;;;;;;5055849;28;20478;-85
2022/06/15 11:23:14;;;;;;;1.47;0.97;;;44.70;4.40;;;;;;5055277;28;20763;-85
2022/06/15 11:25:54;;;;;;;3.40;0.77;;;45.00;2.50;;;;;;5054369;28;20412;-86
2022/06/15 11:28:29;;;;;;;1.90;1.10;;;45.20;3.10;;;;;;5055478;28;20416;-85
2022/06/15 11:31:05;;;;;;;4.30;1.30;;;46.00;8.00;;;;;;5055206;28;20950;-85
2022/06/15 11:33:45;;;;;;;2.73;1.23;;;45.80;5.20;;;;;;5053834;28;20768;-85
2022/06/15 11:36:28;;;;;;;2.60;0.87;;;44.70;1.00;;;;;;5055443;28;20805;-85
2022/06/15 11:39:03;;;;;;;3.20;1.23;;;43.70;1.00;;;;;;5053579;28;20497;-85
2022/06/15 11:41:42;;;;;;;2.50;1.00;;;40.70;1.00;;;;;;5055269;28;20981;-85
2022/06/15 11:44:17;;;;;;;2.87;1.43;;;38.80;1.00;;;;;;5055077;28;20431;-85
2022/06/15 11:47:32;;;;;;;3.77;1.20;;;37.20;1.00;;;;;;5055153;28;20404;-87
2022/06/15 11:50:27;;;;;;;3.07;1.30;;;38.60;1.00;;;;;;5017710;28;20456;-87
2022/06/15 11:53:19;;;;;;;2.80;1.20;;;40.70;1.00;;;;;;5054736;28;20413;-86
2022/06/15 11:55:57;;;;;;;2.27;0.93;;;41.60;1.00;;;;;;5070363;28;20511;-85
2022/06/15 11:58:41;;;;;;;3.10;0.80;;;42.10;1.00;;;;;;5054567;28;20927;-85
2022/06/15 12:01:36;;;;;;;2.30;0.83;;;44.00;1.00;;;;;;5055017;28;20486;-85
2022/06/15 12:04:38;;;;;;;1.60;0.73;;;44.60;1.00;;;;;;5054776;28;20408;-86
2022/06/15 12:07:22;;;;;;;3.90;1.10;;;45.00;1.00;;;;;;5069995;28;20438;-86
2022/06/15 12:10:07;;;;;;;1.10;1.00;;;44.10;1.00;;;;;;5054688;28;20459;-85
2022/06/15 12:12:46;;;;;;;2.57;0.93;;;43.70;1.00;;;;;;5070205;28;20420;-85
2022/06/15 12:15:47;;;;;;;3.00;1.03;;;45.40;1.00;;;;;;5053425;28;20412;-86
2022/06/15 12:18:28;;;;;;;5.30;1.83;;;45.30;1.00;;;;;;5053257;28;20519;-86
2022/06/15 12:21:03;;;;;;;2.10;1.33;;;44.60;1.00;;;;;;5050920;28;20447;-87
2022/06/15 12:23:42;;;;;;;4.63;1.50;;;45.00;1.00;;;;;;5066771;28;20419;-89
2022/06/15 12:26:36;;;;;;;3.40;2.10;;;45.70;1.00;;;;;;5051423;28;20404;-86
2022/06/15 12:29:31;;;;;;;2.40;1.17;;;46.10;1.00;;;;;;5063123;28;20409;-87
2022/06/15 12:35:06;;;;;;;2.40;1.03;;;44.70;1.00;;;;;;5052378;28;20431;-86
2022/06/15 12:37:39;;;;;;;1.60;1.10;;;41.60;1.00;;;;;;5056278;28;20443;-87
2022/06/15 12:40:08;;;;;;;2.77;0.90;;;38.00;1.00;;;;;;5058150;28;20820;-85
2022/06/15 12:42:34;;;;;;;2.93;1.13;;;35.30;1.00;;;;;;5054419;28;20894;-86
2022/06/15 12:45:14;;;;;;;1.43;0.60;;;33.60;1.00;;;;;;5052983;28;20881;-86
2022/06/15 12:47:51;;;;;;;3.73;1.37;;;32.50;1.00;;;;;;5053817;28;20969;-86
2022/06/15 12:50:33;;;;;;;5.93;1.13;;;34.00;1.00;;;;;;5052472;28;20959;-87
2022/06/15 12:53:14;;;;;;;2.17;1.07;;;35.60;1.00;;;;;;5052448;28;20431;-86
2022/06/15 12:56:17;;;;;;;2.50;1.10;;;37.20;1.00;;;;;;5049804;28;20420;-88
2022/06/15 12:59:07;;;;;;;5.07;1.50;;;39.80;1.00;;;;;;5050179;28;20517;-88
2022/06/15 13:01:43;;;;;;;4.67;2.00;;;41.90;1.00;;;;;;5051779;28;20784;-85
2022/06/15 13:04:40;;;;;;;3.40;1.20;;;43.60;1.00;;;;;;5051303;28;20908;-85
2022/06/15 13:07:18;;;;;;;2.07;0.97;;;43.70;1.00;;;;;;5050241;28;20869;-84
2022/06/15 13:10:06;;;;;;;4.00;1.37;;;44.30;1.00;;;;;;5050072;28;20558;-84
2022/06/15 13:12:42;;;;;;;2.70;1.30;;;44.80;1.00;;;;;;5066653;28;20408;-85
2022/06/15 13:15:27;;;;;;;2.70;1.60;;;44.40;1.00;;;;;;5050612;28;20419;-86
2022/06/15 13:20:57;;;;;;;5.43;1.37;;;45.60;1.00;;;;;;5051409;28;20416;-83
2022/06/15 13:23:23;;;;;;;3.93;1.20;;;44.40;1.00;;;;;;5049558;28;20420;-84
2022/06/15 13:25:55;;;;;;;1.20;0.87;;;44.00;1.00;;;;;;5052266;28;20503;-85
2022/06/15 13:28:28;;;;;;;2.13;0.83;;;43.00;1.00;;;;;;5052067;28;20174;-84
2022/06/15 13:30:58;;;;;;;1.70;0.80;;;41.90;1.00;;;;;;5067220;28;20467;-87
2022/06/15 13:33:49;;;;;;;2.27;1.10;;;42.60;1.00;;;;;;5049557;28;20550;-86
2022/06/15 13:36:17;;;;;;;3.03;1.17;;;43.20;1.00;;;;;;5050820;28;20428;-86
2022/06/15 13:38:45;;;;;;;3.67;1.53;;;43.20;1.00;;;;;;5051425;28;20483;-87
2022/06/15 13:41:19;;;;;;;3.20;1.60;;;43.50;1.00;;;;;;5051917;28;20423;-88
2022/06/15 13:43:51;;;;;;;3.63;1.00;;;43.00;1.00;;;;;;5065135;28;20435;-88
2022/06/15 13:46:25;;;;;;;3.40;1.37;;;43.20;1.00;;;;;;5051723;28;20409;-86
2022/06/15 13:48:54;;;;;;;3.80;1.37;;;43.20;1.00;;;;;;5051707;28;20404;-88
2022/06/15 13:51:40;;;;;;;3.57;1.33;;;43.60;1.00;;;;;;5051536;28;20910;-87